sensor_id;sensor_type;location;lat;lon;timestamp;pressure;altitude;pressure_sealevel;temperature;humidity
7052;BME280;3567;52.444;13.556;2024-02-21T00:01:53;101656.88;;;7.52;100.00
7052;BME280;3567;52.444;13.556;2024-02-21T00:04:18;101657.72;;;7.52;100.00
7052;BME280;3567;52.444;13.556;2024-02-21T00:06:43;101656.88;;;7.52;100.00
7052;BME280;3567;52.444;13.556;2024-02-21T00:09:09;101657.31;;;7.55;100.00
7052;BME280;3567;52.444;13.556;2024-02-21T00:11:35;101655.69;;;7.54;100.00
7052;BME280;3567;52.444;13.556;2024-02-21T00:14:00;101653.00;;;7.54;100.00
7052;BME280;3567;52.444;13.556;2024-02-21T00:16:25;101639.88;;;7.53;100.00
7052;BME280;3567;52.444;13.556;2024-02-21T00:18:51;101640.91;;;7.52;100.00
7052;BME280;3567;52.444;13.556;2024-02-21T00:21:16;101639.88;;;7.53;100.00
7052;BME280;3567;52.444;13.556;2024-02-21T00:23:44;101644.38;;;7.52;100.00
7052;BME280;3567;52.444;13.556;2024-02-21T00:26:13;101635.56;;;7.52;100.00
7052;BME280;3567;52.444;13.556;2024-02-21T00:28:41;101640.22;;;7.50;100.00
7052;BME280;3567;52.444;13.556;2024-02-21T00:31:06;101637.41;;;7.51;100.00
7052;BME280;3567;52.444;13.556;2024-02-21T00:33:32;101626.91;;;7.50;100.00
7052;BME280;3567;52.444;13.556;2024-02-21T00:35:57;101629.41;;;7.51;100.00
7052;BME280;3567;52.444;13.556;2024-02-21T00:38:23;101625.53;;;7.54;100.00
7052;BME280;3567;52.444;13.556;2024-02-21T00:40:48;101636.81;;;7.56;100.00
7052;BME280;3567;52.444;13.556;2024-02-21T00:43:13;101624.50;;;7.55;100.00
7052;BME280;3567;52.444;13.556;2024-02-21T00:45:39;101629.84;;;7.55;100.00
7052;BME280;3567;52.444;13.556;2024-02-21T00:48:04;101622.88;;;7.54;100.00
7052;BME280;3567;52.444;13.556;2024-02-21T00:50:30;101616.72;;;7.53;100.00
7052;BME280;3567;52.444;13.556;2024-02-21T00:52:55;101616.91;;;7.52;100.00
7052;BME280;3567;52.444;13.556;2024-02-21T00:55:21;101611.94;;;7.49;100.00
7052;BME280;3567;52.444;13.556;2024-02-21T00:57:46;101608.44;;;7.48;100.00
7052;BME280;3567;52.444;13.556;2024-02-21T01:00:12;101610.91;;;7.50;100.00
7052;BME280;3567;52.444;13.556;2024-02-21T01:02:37;101614.22;;;7.52;100.00
7052;BME280;3567;52.444;13.556;2024-02-21T01:05:03;101613.03;;;7.54;100.00
7052;BME280;3567;52.444;13.556;2024-02-21T01:07:29;101606.88;;;7.54;100.00
7052;BME280;3567;52.444;13.556;2024-02-21T01:09:54;101605.84;;;7.55;100.00
7052;BME280;3567;52.444;13.556;2024-02-21T01:12:19;101599.50;;;7.56;100.00
7052;BME280;3567;52.444;13.556;2024-02-21T01:14:45;101593.53;;;7.54;100.00
7052;BME280;3567;52.444;13.556;2024-02-21T01:17:12;101597.03;;;7.54;100.00
7052;BME280;3567;52.444;13.556;2024-02-21T01:19:37;101588.81;;;7.56;100.00
7052;BME280;3567;52.444;13.556;2024-02-21T01:22:03;101588.81;;;7.56;100.00
7052;BME280;3567;52.444;13.556;2024-02-21T01:24:43;101587.66;;;7.58;100.00
7052;BME280;3567;52.444;13.556;2024-02-21T01:27:08;101588.28;;;7.60;100.00
7052;BME280;3567;52.444;13.556;2024-02-21T01:29:34;101586.44;;;7.61;100.00
7052;BME280;3567;52.444;13.556;2024-02-21T01:31:59;101584.41;;;7.63;100.00
7052;BME280;3567;52.444;13.556;2024-02-21T01:34:24;101585.44;;;7.62;100.00
7052;BME280;3567;52.444;13.556;2024-02-21T01:36:50;101584.41;;;7.63;100.00
7052;BME280;3567;52.444;13.556;2024-02-21T01:39:15;101582.38;;;7.65;100.00
7052;BME280;3567;52.444;13.556;2024-02-21T01:41:41;101583.41;;;7.64;100.00
7052;BME280;3567;52.444;13.556;2024-02-21T01:44:06;101575.19;;;7.66;100.00
7052;BME280;3567;52.444;13.556;2024-02-21T01:46:32;101576.84;;;7.67;100.00
7052;BME280;3567;52.444;13.556;2024-02-21T01:48:57;101577.50;;;7.69;100.00
7052;BME280;3567;52.444;13.556;2024-02-21T01:51:23;101577.31;;;7.70;100.00
7052;BME280;3567;52.444;13.556;2024-02-21T01:53:50;101573.63;;;7.71;100.00
7052;BME280;3567;52.444;13.556;2024-02-21T01:56:16;101566.44;;;7.72;100.00
7052;BME280;3567;52.444;13.556;2024-02-21T01:58:42;101568.94;;;7.73;100.00
7052;BME280;3567;52.444;13.556;2024-02-21T02:01:10;101563.59;;;7.73;100.00
7052;BME280;3567;52.444;13.556;2024-02-21T02:03:35;101561.56;;;7.75;100.00
7052;BME280;3567;52.444;13.556;2024-02-21T02:06:01;101556.22;;;7.75;100.00
7052;BME280;3567;52.444;13.556;2024-02-21T02:08:27;101558.91;;;7.75;100.00
7052;BME280;3567;52.444;13.556;2024-02-21T02:10:53;101553.38;;;7.77;100.00
7052;BME280;3567;52.444;13.556;2024-02-21T02:13:18;101553.38;;;7.77;100.00
7052;BME280;3567;52.444;13.556;2024-02-21T02:15:45;101547.88;;;7.78;100.00
7052;BME280;3567;52.444;13.556;2024-02-21T02:18:12;101541.69;;;7.78;100.00
7052;BME280;3567;52.444;13.556;2024-02-21T02:20:38;101539.88;;;7.78;100.00
7052;BME280;3567;52.444;13.556;2024-02-21T02:23:08;101537.19;;;7.78;100.00
7052;BME280;3567;52.444;13.556;2024-02-21T02:25:35;101538.19;;;7.77;100.00
7052;BME280;3567;52.444;13.556;2024-02-21T02:28:02;101534.06;;;7.75;100.00
7052;BME280;3567;52.444;13.556;2024-02-21T02:30:27;101536.94;;;7.73;100.00
7052;BME280;3567;52.444;13.556;2024-02-21T02:32:52;101531.34;;;7.68;100.00
7052;BME280;3567;52.444;13.556;2024-02-21T02:35:18;101519.97;;;7.59;100.00
7052;BME280;3567;52.444;13.556;2024-02-21T02:37:49;101520.72;;;7.53;100.00
7052;BME280;3567;52.444;13.556;2024-02-21T02:40:15;101528.00;;;7.45;100.00
7052;BME280;3567;52.444;13.556;2024-02-21T02:42:40;101512.78;;;7.39;100.00
7052;BME280;3567;52.444;13.556;2024-02-21T02:45:06;101519.06;;;7.31;100.00
7052;BME280;3567;52.444;13.556;2024-02-21T02:47:32;101518.78;;;7.26;100.00
7052;BME280;3567;52.444;13.556;2024-02-21T02:49:59;101515.84;;;7.21;100.00
7052;BME280;3567;52.444;13.556;2024-02-21T02:52:25;101520.09;;;7.15;100.00
7052;BME280;3567;52.444;13.556;2024-02-21T02:54:50;101522.50;;;7.10;100.00
7052;BME280;3567;52.444;13.556;2024-02-21T02:57:17;101512.38;;;7.05;100.00
7052;BME280;3567;52.444;13.556;2024-02-21T02:59:50;101503.66;;;6.97;100.00
7052;BME280;3567;52.444;13.556;2024-02-21T03:02:16;101506.06;;;6.92;100.00
7052;BME280;3567;52.444;13.556;2024-02-21T03:04:42;101507.28;;;6.89;100.00
7052;BME280;3567;52.444;13.556;2024-02-21T03:07:08;101496.16;;;6.86;100.00
7052;BME280;3567;52.444;13.556;2024-02-21T03:09:33;101494.50;;;6.85;100.00
7052;BME280;3567;52.444;13.556;2024-02-21T03:11:59;101493.22;;;6.80;100.00
7052;BME280;3567;52.444;13.556;2024-02-21T03:14:31;101496.69;;;6.81;100.00
7052;BME280;3567;52.444;13.556;2024-02-21T03:16:58;101487.88;;;6.80;100.00
7052;BME280;3567;52.444;13.556;2024-02-21T03:19:24;101479.09;;;6.80;100.00
7052;BME280;3567;52.444;13.556;2024-02-21T03:21:49;101470.28;;;6.79;100.00
7052;BME280;3567;52.444;13.556;2024-02-21T03:24:16;101476.41;;;6.80;100.00
7052;BME280;3567;52.444;13.556;2024-02-21T03:26:41;101469.25;;;6.80;100.00
7052;BME280;3567;52.444;13.556;2024-02-21T03:29:07;101470.06;;;6.81;100.00
7052;BME280;3567;52.444;13.556;2024-02-21T03:31:33;101464.75;;;6.81;100.00
7052;BME280;3567;52.444;13.556;2024-02-21T03:33:58;101465.56;;;6.81;100.00
7052;BME280;3567;52.444;13.556;2024-02-21T03:36:24;101466.44;;;6.82;100.00
7052;BME280;3567;52.444;13.556;2024-02-21T03:38:49;101465.41;;;6.83;100.00
7052;BME280;3567;52.444;13.556;2024-02-21T03:41:14;101468.22;;;6.81;100.00
7052;BME280;3567;52.444;13.556;2024-02-21T03:43:39;101463.94;;;6.80;100.00
7052;BME280;3567;52.444;13.556;2024-02-21T03:46:05;101469.09;;;6.82;100.00
7052;BME280;3567;52.444;13.556;2024-02-21T03:48:31;101458.59;;;6.80;100.00
7052;BME280;3567;52.444;13.556;2024-02-21T03:50:58;101466.59;;;6.80;100.00
7052;BME280;3567;52.444;13.556;2024-02-21T03:53:23;101452.66;;;6.78;100.00
7052;BME280;3567;52.444;13.556;2024-02-21T03:55:48;101453.81;;;6.76;100.00
7052;BME280;3567;52.444;13.556;2024-02-21T03:58:14;101451.34;;;6.74;100.00
7052;BME280;3567;52.444;13.556;2024-02-21T04:00:39;101440.09;;;6.72;100.00
7052;BME280;3567;52.444;13.556;2024-02-21T04:03:05;101436.75;;;6.70;100.00
7052;BME280;3567;52.444;13.556;2024-02-21T04:05:30;101434.09;;;6.70;100.00
7052;BME280;3567;52.444;13.556;2024-02-21T04:07:56;101428.34;;;6.67;100.00
7052;BME280;3567;52.444;13.556;2024-02-21T04:10:21;101432.00;;;6.66;100.00
7052;BME280;3567;52.444;13.556;2024-02-21T04:12:47;101431.34;;;6.64;100.00
7052;BME280;3567;52.444;13.556;2024-02-21T04:15:15;101427.88;;;6.63;100.00
7052;BME280;3567;52.444;13.556;2024-02-21T04:17:41;101422.56;;;6.63;100.00
7052;BME280;3567;52.444;13.556;2024-02-21T04:20:06;101420.91;;;6.62;100.00
7052;BME280;3567;52.444;13.556;2024-02-21T04:22:38;101415.59;;;6.62;100.00
7052;BME280;3567;52.444;13.556;2024-02-21T04:25:04;101406.94;;;6.60;100.00
7052;BME280;3567;52.444;13.556;2024-02-21T04:27:29;101408.63;;;6.61;100.00
7052;BME280;3567;52.444;13.556;2024-02-21T04:29:54;101393.63;;;6.60;100.00
7052;BME280;3567;52.444;13.556;2024-02-21T04:32:20;101386.66;;;6.59;100.00
7052;BME280;3567;52.444;13.556;2024-02-21T04:34:45;101380.72;;;6.57;100.00
7052;BME280;3567;52.444;13.556;2024-02-21T04:37:11;101377.38;;;6.55;100.00
7052;BME280;3567;52.444;13.556;2024-02-21T04:39:36;101372.06;;;6.55;100.00
7052;BME280;3567;52.444;13.556;2024-02-21T04:42:01;101374.72;;;6.55;100.00
7052;BME280;3567;52.444;13.556;2024-02-21T04:44:27;101373.75;;;6.56;100.00
7052;BME280;3567;52.444;13.556;2024-02-21T04:46:52;101363.25;;;6.54;100.00
7052;BME280;3567;52.444;13.556;2024-02-21T04:49:18;101358.59;;;6.56;100.00
7052;BME280;3567;52.444;13.556;2024-02-21T04:51:43;101342.63;;;6.56;100.00
7052;BME280;3567;52.444;13.556;2024-02-21T04:54:08;101343.63;;;6.55;100.00
7052;BME280;3567;52.444;13.556;2024-02-21T04:56:34;101340.97;;;6.55;100.00
7052;BME280;3567;52.444;13.556;2024-02-21T04:58:59;101347.13;;;6.56;100.00
7052;BME280;3567;52.444;13.556;2024-02-21T05:01:25;101345.91;;;6.59;100.00
7052;BME280;3567;52.444;13.556;2024-02-21T05:03:50;101332.59;;;6.59;100.00
7052;BME280;3567;52.444;13.556;2024-02-21T05:06:15;101335.25;;;6.59;100.00
7052;BME280;3567;52.444;13.556;2024-02-21T05:08:41;101319.75;;;6.62;100.00
7052;BME280;3567;52.444;13.556;2024-02-21T05:11:06;101324.06;;;6.63;100.00
7052;BME280;3567;52.444;13.556;2024-02-21T05:13:32;101325.69;;;6.64;100.00
7052;BME280;3567;52.444;13.556;2024-02-21T05:15:57;101326.34;;;6.66;100.00
7052;BME280;3567;52.444;13.556;2024-02-21T05:18:26;101326.78;;;6.70;100.00
7052;BME280;3567;52.444;13.556;2024-02-21T05:20:52;101323.94;;;6.71;100.00
7052;BME280;3567;52.444;13.556;2024-02-21T05:23:17;101327.59;;;6.70;100.00
7052;BME280;3567;52.444;13.556;2024-02-21T05:25:42;101334.59;;;6.71;100.00
7052;BME280;3567;52.444;13.556;2024-02-21T05:28:08;101330.25;;;6.70;100.00
7052;BME280;3567;52.444;13.556;2024-02-21T05:30:33;101332.56;;;6.73;100.00
7052;BME280;3567;52.444;13.556;2024-02-21T05:32:58;101328.06;;;6.74;100.00
7052;BME280;3567;52.444;13.556;2024-02-21T05:35:28;101322.53;;;6.75;100.00
7052;BME280;3567;52.444;13.556;2024-02-21T05:37:53;101327.69;;;6.77;100.00
7052;BME280;3567;52.444;13.556;2024-02-21T05:40:19;101331.34;;;6.76;100.00
7052;BME280;3567;52.444;13.556;2024-02-21T05:42:44;101327.88;;;6.75;100.00
7052;BME280;3567;52.444;13.556;2024-02-21T05:45:09;101325.66;;;6.79;100.00
7052;BME280;3567;52.444;13.556;2024-02-21T05:47:35;101330.78;;;6.80;100.00
7052;BME280;3567;52.444;13.556;2024-02-21T05:50:00;101333.44;;;6.80;100.00
7052;BME280;3567;52.444;13.556;2024-02-21T05:52:25;101333.44;;;6.80;100.00
7052;BME280;3567;52.444;13.556;2024-02-21T05:54:51;101329.97;;;6.80;100.00
7052;BME280;3567;52.444;13.556;2024-02-21T05:57:17;101329.75;;;6.81;100.00
7052;BME280;3567;52.444;13.556;2024-02-21T05:59:43;101325.09;;;6.83;100.00
7052;BME280;3567;52.444;13.556;2024-02-21T06:02:09;101320.38;;;6.86;100.00
7052;BME280;3567;52.444;13.556;2024-02-21T06:04:34;101329.41;;;6.85;100.00
7052;BME280;3567;52.444;13.556;2024-02-21T06:07:00;101324.06;;;6.85;100.00
7052;BME280;3567;52.444;13.556;2024-02-21T06:09:26;101323.06;;;6.86;100.00
7052;BME280;3567;52.444;13.556;2024-02-21T06:11:51;101318.56;;;6.86;100.00
7052;BME280;3567;52.444;13.556;2024-02-21T06:14:16;101308.72;;;6.87;100.00
7052;BME280;3567;52.444;13.556;2024-02-21T06:16:43;101306.06;;;6.87;100.00
7052;BME280;3567;52.444;13.556;2024-02-21T06:19:08;101307.06;;;6.86;100.00
7052;BME280;3567;52.444;13.556;2024-02-21T06:21:34;101309.13;;;6.83;100.00
7052;BME280;3567;52.444;13.556;2024-02-21T06:23:59;101316.09;;;6.85;100.00
7052;BME280;3567;52.444;13.556;2024-02-21T06:26:25;101303.78;;;6.83;100.00
7052;BME280;3567;52.444;13.556;2024-02-21T06:28:50;101311.38;;;6.87;100.00
7052;BME280;3567;52.444;13.556;2024-02-21T06:31:15;101297.44;;;6.85;100.00
7052;BME280;3567;52.444;13.556;2024-02-21T06:33:41;101292.94;;;6.85;100.00
7052;BME280;3567;52.444;13.556;2024-02-21T06:36:07;101301.59;;;6.87;100.00
7052;BME280;3567;52.444;13.556;2024-02-21T06:38:32;101305.06;;;6.88;100.00
7052;BME280;3567;52.444;13.556;2024-02-21T06:40:59;101305.22;;;6.86;100.00
7052;BME280;3567;52.444;13.556;2024-02-21T06:43:25;101299.53;;;6.89;100.00
7052;BME280;3567;52.444;13.556;2024-02-21T06:45:51;101301.38;;;6.89;100.00
7052;BME280;3567;52.444;13.556;2024-02-21T06:48:17;101304.88;;;6.89;100.00
7052;BME280;3567;52.444;13.556;2024-02-21T06:50:43;101310.81;;;6.91;100.00
7052;BME280;3567;52.444;13.556;2024-02-21T06:53:08;101305.31;;;6.93;100.00
7052;BME280;3567;52.444;13.556;2024-02-21T06:55:33;101302.25;;;6.96;100.00
7052;BME280;3567;52.444;13.556;2024-02-21T06:57:59;101298.78;;;6.95;100.00
7052;BME280;3567;52.444;13.556;2024-02-21T07:00:24;101302.91;;;6.98;100.00
7052;BME280;3567;52.444;13.556;2024-02-21T07:02:50;101306.41;;;6.98;100.00
7052;BME280;3567;52.444;13.556;2024-02-21T07:05:16;101312.53;;;6.99;100.00
7052;BME280;3567;52.444;13.556;2024-02-21T07:07:41;101302.50;;;7.01;100.00
7052;BME280;3567;52.444;13.556;2024-02-21T07:10:07;101314.44;;;7.05;100.00
7052;BME280;3567;52.444;13.556;2024-02-21T07:12:33;101311.13;;;7.03;100.00
7052;BME280;3567;52.444;13.556;2024-02-21T07:14:58;101311.13;;;7.03;100.00
7052;BME280;3567;52.444;13.556;2024-02-21T07:17:24;101314.44;;;7.05;100.00
7052;BME280;3567;52.444;13.556;2024-02-21T07:19:49;101322.22;;;7.06;100.00
7052;BME280;3567;52.444;13.556;2024-02-21T07:22:14;101312.81;;;7.04;100.00
7052;BME280;3567;52.444;13.556;2024-02-21T07:24:40;101328.38;;;7.07;100.00
7052;BME280;3567;52.444;13.556;2024-02-21T07:27:05;101327.75;;;7.05;100.00
7052;BME280;3567;52.444;13.556;2024-02-21T07:29:31;101326.38;;;7.09;100.00
7052;BME280;3567;52.444;13.556;2024-02-21T07:31:56;101322.88;;;7.08;100.00
7052;BME280;3567;52.444;13.556;2024-02-21T07:34:21;101328.00;;;7.10;100.00
7052;BME280;3567;52.444;13.556;2024-02-21T07:36:47;101320.03;;;7.10;100.00
7052;BME280;3567;52.444;13.556;2024-02-21T07:39:12;101316.13;;;7.13;100.00
7052;BME280;3567;52.444;13.556;2024-02-21T07:41:37;101321.28;;;7.14;100.00
7052;BME280;3567;52.444;13.556;2024-02-21T07:44:04;101315.75;;;7.16;100.00
7052;BME280;3567;52.444;13.556;2024-02-21T07:46:30;101316.59;;;7.16;100.00
7052;BME280;3567;52.444;13.556;2024-02-21T07:48:55;101318.63;;;7.14;100.00
7052;BME280;3567;52.444;13.556;2024-02-21T07:51:21;101309.66;;;7.22;100.00
7052;BME280;3567;52.444;13.556;2024-02-21T07:53:46;101308.44;;;7.24;100.00
7052;BME280;3567;52.444;13.556;2024-02-21T07:56:13;101310.47;;;7.22;100.00
7052;BME280;3567;52.444;13.556;2024-02-21T07:58:42;101304.38;;;7.28;100.00
7052;BME280;3567;52.444;13.556;2024-02-21T08:01:08;101305.84;;;7.31;100.00
7052;BME280;3567;52.444;13.556;2024-02-21T08:03:34;101310.38;;;7.30;100.00
7052;BME280;3567;52.444;13.556;2024-02-21T08:05:59;101307.69;;;7.30;100.00
7052;BME280;3567;52.444;13.556;2024-02-21T08:08:24;101305.66;;;7.32;100.00
7052;BME280;3567;52.444;13.556;2024-02-21T08:10:50;101298.28;;;7.34;100.00
7052;BME280;3567;52.444;13.556;2024-02-21T08:13:15;101295.44;;;7.36;100.00
7052;BME280;3567;52.444;13.556;2024-02-21T08:15:41;101292.56;;;7.38;100.00
7052;BME280;3567;52.444;13.556;2024-02-21T08:18:07;101294.66;;;7.42;100.00
7052;BME280;3567;52.444;13.556;2024-02-21T08:20:33;101293.44;;;7.45;100.00
7052;BME280;3567;52.444;13.556;2024-02-21T08:22:58;101288.09;;;7.45;100.00
7052;BME280;3567;52.444;13.556;2024-02-21T08:25:23;101294.50;;;7.50;100.00
7052;BME280;3567;52.444;13.556;2024-02-21T08:27:49;101288.59;;;7.55;100.00
7052;BME280;3567;52.444;13.556;2024-02-21T08:30:16;101281.25;;;7.57;100.00
7052;BME280;3567;52.444;13.556;2024-02-21T08:32:42;101288.44;;;7.63;100.00
7052;BME280;3567;52.444;13.556;2024-02-21T08:35:07;101296.44;;;7.63;100.00
7052;BME280;3567;52.444;13.556;2024-02-21T08:37:33;101287.03;;;7.67;100.00
7052;BME280;3567;52.444;13.556;2024-02-21T08:39:58;101291.97;;;7.70;100.00
7052;BME280;3567;52.444;13.556;2024-02-21T08:42:24;101285.03;;;7.76;100.00
7052;BME280;3567;52.444;13.556;2024-02-21T08:44:49;101285.25;;;7.81;100.00
7052;BME280;3567;52.444;13.556;2024-02-21T08:47:14;101276.28;;;7.88;100.00
7052;BME280;3567;52.444;13.556;2024-02-21T08:49:40;101284.72;;;7.99;100.00
7052;BME280;3567;52.444;13.556;2024-02-21T08:52:05;101290.50;;;8.02;100.00
7052;BME280;3567;52.444;13.556;2024-02-21T08:54:31;101287.25;;;8.07;100.00
7052;BME280;3567;52.444;13.556;2024-02-21T08:56:58;101290.13;;;8.12;100.00
7052;BME280;3567;52.444;13.556;2024-02-21T08:59:23;101293.84;;;8.11;100.00
7052;BME280;3567;52.444;13.556;2024-02-21T09:01:49;101294.69;;;8.18;100.00
7052;BME280;3567;52.444;13.556;2024-02-21T09:04:14;101287.50;;;8.25;100.00
7052;BME280;3567;52.444;13.556;2024-02-21T09:06:40;101293.28;;;8.29;100.00
7052;BME280;3567;52.444;13.556;2024-02-21T09:09:08;101301.72;;;8.32;100.00
7052;BME280;3567;52.444;13.556;2024-02-21T09:11:35;101292.47;;;8.35;100.00
7052;BME280;3567;52.444;13.556;2024-02-21T09:14:00;101296.44;;;8.46;100.00
7052;BME280;3567;52.444;13.556;2024-02-21T09:16:26;101288.50;;;8.59;100.00
7052;BME280;3567;52.444;13.556;2024-02-21T09:18:51;101293.84;;;8.72;100.00
7052;BME280;3567;52.444;13.556;2024-02-21T09:21:18;101297.38;;;8.79;100.00
7052;BME280;3567;52.444;13.556;2024-02-21T09:23:43;101285.44;;;8.82;100.00
7052;BME280;3567;52.444;13.556;2024-02-21T09:26:09;101286.47;;;8.87;100.00
7052;BME280;3567;52.444;13.556;2024-02-21T09:28:39;101282.56;;;8.83;100.00
7052;BME280;3567;52.444;13.556;2024-02-21T09:31:04;101291.59;;;8.82;100.00
7052;BME280;3567;52.444;13.556;2024-02-21T09:33:29;101279.28;;;8.81;100.00
7052;BME280;3567;52.444;13.556;2024-02-21T09:35:55;101274.38;;;8.91;100.00
7052;BME280;3567;52.444;13.556;2024-02-21T09:38:20;101266.13;;;9.00;100.00
7052;BME280;3567;52.444;13.556;2024-02-21T09:40:46;101273.53;;;9.04;100.00
7052;BME280;3567;52.444;13.556;2024-02-21T09:43:17;101276.41;;;9.03;100.00
7052;BME280;3567;52.444;13.556;2024-02-21T09:45:46;101269.84;;;9.05;100.00
7052;BME280;3567;52.444;13.556;2024-02-21T09:50:38;101262.44;;;9.07;100.00
7052;BME280;3567;52.444;13.556;2024-02-21T09:53:06;101275.59;;;9.09;100.00
7052;BME280;3567;52.444;13.556;2024-02-21T09:55:33;101262.44;;;9.07;100.00
7052;BME280;3567;52.444;13.556;2024-02-21T09:58:01;101267.19;;;9.12;100.00
7052;BME280;3567;52.444;13.556;2024-02-21T10:00:27;101267.38;;;9.10;100.00
7052;BME280;3567;52.444;13.556;2024-02-21T10:02:53;101278.47;;;9.21;100.00
7052;BME280;3567;52.444;13.556;2024-02-21T10:05:19;101273.53;;;9.24;100.00
7052;BME280;3567;52.444;13.556;2024-02-21T10:07:44;101271.69;;;9.25;100.00
7052;BME280;3567;52.444;13.556;2024-02-21T10:10:11;101269.00;;;9.25;100.00
7052;BME280;3567;52.444;13.556;2024-02-21T10:12:36;101269.84;;;9.25;100.00
7052;BME280;3567;52.444;13.556;2024-02-21T10:15:02;101275.59;;;9.29;100.00
7052;BME280;3567;52.444;13.556;2024-02-21T10:17:27;101265.31;;;9.32;100.00
7052;BME280;3567;52.444;13.556;2024-02-21T10:19:53;101258.53;;;9.30;100.00
7052;BME280;3567;52.444;13.556;2024-02-21T10:22:18;101265.31;;;9.32;100.00
7052;BME280;3567;52.444;13.556;2024-02-21T10:24:45;101259.97;;;9.39;100.00
7052;BME280;3567;52.444;13.556;2024-02-21T10:27:11;101269.00;;;9.44;100.00
7052;BME280;3567;52.444;13.556;2024-02-21T10:29:37;101270.25;;;9.49;100.00
7052;BME280;3567;52.444;13.556;2024-02-21T10:32:13;101267.34;;;9.50;100.00
7052;BME280;3567;52.444;13.556;2024-02-21T10:34:40;101263.22;;;9.61;100.00
7052;BME280;3567;52.444;13.556;2024-02-21T10:37:10;101268.31;;;9.69;100.00
7052;BME280;3567;52.444;13.556;2024-02-21T10:39:40;101255.38;;;9.66;100.00
7052;BME280;3567;52.444;13.556;2024-02-21T10:42:06;101260.50;;;9.74;100.00
7052;BME280;3567;52.444;13.556;2024-02-21T10:44:37;101269.75;;;9.78;100.00
7052;BME280;3567;52.444;13.556;2024-02-21T10:47:10;101264.44;;;9.71;100.00
7052;BME280;3567;52.444;13.556;2024-02-21T10:49:40;101264.84;;;9.68;100.00
7052;BME280;3567;52.444;13.556;2024-02-21T10:52:45;101249.78;;;9.74;100.00
7052;BME280;3567;52.444;13.556;2024-02-21T10:55:20;101246.50;;;9.72;100.00
7052;BME280;3567;52.444;13.556;2024-02-21T10:57:50;101243.44;;;9.68;100.00
7052;BME280;3567;52.444;13.556;2024-02-21T11:00:17;101247.13;;;9.74;100.00
7052;BME280;3567;52.444;13.556;2024-02-21T11:02:44;101242.38;;;9.83;100.00
7052;BME280;3567;52.444;13.556;2024-02-21T11:05:11;101241.78;;;9.74;100.00
7052;BME280;3567;52.444;13.556;2024-02-21T11:07:37;101250.00;;;9.73;100.00
7052;BME280;3567;52.444;13.556;2024-02-21T11:10:03;101241.38;;;9.70;100.00
7052;BME280;3567;52.444;13.556;2024-02-21T11:12:32;101241.78;;;9.81;100.00
7052;BME280;3567;52.444;13.556;2024-02-21T11:15:07;101233.94;;;9.86;100.00
7052;BME280;3567;52.444;13.556;2024-02-21T11:17:33;101230.59;;;9.90;100.00
7052;BME280;3567;52.444;13.556;2024-02-21T11:19:58;101222.78;;;9.89;100.00
7052;BME280;3567;52.444;13.556;2024-02-21T11:22:25;101223.56;;;10.03;100.00
7052;BME280;3567;52.444;13.556;2024-02-21T11:24:54;101218.41;;;10.08;100.00
7052;BME280;3567;52.444;13.556;2024-02-21T11:27:21;101201.66;;;10.19;100.00
7052;BME280;3567;52.444;13.556;2024-02-21T11:29:55;101206.88;;;10.45;100.00
7052;BME280;3567;52.444;13.556;2024-02-21T11:32:21;101199.38;;;10.54;100.00
7052;BME280;3567;52.444;13.556;2024-02-21T11:35:00;101188.03;;;10.84;100.00
7052;BME280;3567;52.444;13.556;2024-02-21T11:37:33;101181.94;;;11.38;100.00
7052;BME280;3567;52.444;13.556;2024-02-21T11:40:00;101176.28;;;11.65;100.00
7052;BME280;3567;52.444;13.556;2024-02-21T11:42:29;101175.66;;;11.81;100.00
7052;BME280;3567;52.444;13.556;2024-02-21T11:44:56;101170.31;;;11.99;100.00
7052;BME280;3567;52.444;13.556;2024-02-21T11:47:24;101173.78;;;12.30;100.00
7052;BME280;3567;52.444;13.556;2024-02-21T11:49:49;101169.44;;;12.59;100.00
7052;BME280;3567;52.444;13.556;2024-02-21T11:52:19;101155.13;;;12.35;96.78
7052;BME280;3567;52.444;13.556;2024-02-21T11:54:47;101155.03;;;12.00;97.03
7052;BME280;3567;52.444;13.556;2024-02-21T11:57:13;101145.41;;;11.92;97.93
7052;BME280;3567;52.444;13.556;2024-02-21T11:59:39;101140.31;;;12.02;98.07
7052;BME280;3567;52.444;13.556;2024-02-21T12:02:05;101142.31;;;12.49;95.44
7052;BME280;3567;52.444;13.556;2024-02-21T12:04:30;101135.94;;;12.85;92.10
7052;BME280;3567;52.444;13.556;2024-02-21T12:06:57;101141.06;;;12.75;91.43
7052;BME280;3567;52.444;13.556;2024-02-21T12:09:23;101124.09;;;12.51;90.04
7052;BME280;3567;52.444;13.556;2024-02-21T12:12:00;101128.69;;;12.74;89.12
7052;BME280;3567;52.444;13.556;2024-02-21T12:14:28;101125.16;;;12.97;88.60
7052;BME280;3567;52.444;13.556;2024-02-21T12:16:54;101113.44;;;13.15;87.56
7052;BME280;3567;52.444;13.556;2024-02-21T12:19:19;101102.22;;;13.29;84.97
7052;BME280;3567;52.444;13.556;2024-02-21T12:21:45;101105.88;;;13.63;85.60
7052;BME280;3567;52.444;13.556;2024-02-21T12:24:14;101102.69;;;13.95;84.54
7052;BME280;3567;52.444;13.556;2024-02-21T12:26:40;101090.66;;;14.31;83.62
7052;BME280;3567;52.444;13.556;2024-02-21T12:29:06;101089.00;;;14.13;78.38
7052;BME280;3567;52.444;13.556;2024-02-21T12:31:31;101083.25;;;13.93;82.63
7052;BME280;3567;52.444;13.556;2024-02-21T12:33:56;101074.25;;;13.71;80.94
7052;BME280;3567;52.444;13.556;2024-02-21T12:36:22;101080.66;;;13.41;82.02
7052;BME280;3567;52.444;13.556;2024-02-21T12:38:47;101072.66;;;12.94;82.48
7052;BME280;3567;52.444;13.556;2024-02-21T12:41:14;101073.75;;;12.70;82.89
7052;BME280;3567;52.444;13.556;2024-02-21T12:43:40;101071.28;;;12.56;84.53
7052;BME280;3567;52.444;13.556;2024-02-21T12:46:05;101074.19;;;12.55;84.46
7052;BME280;3567;52.444;13.556;2024-02-21T12:48:32;101076.41;;;12.35;84.94
7052;BME280;3567;52.444;13.556;2024-02-21T12:50:58;101068.81;;;12.20;85.74
7052;BME280;3567;52.444;13.556;2024-02-21T12:53:23;101060.63;;;12.15;85.97
7052;BME280;3567;52.444;13.556;2024-02-21T12:55:49;101056.66;;;12.17;86.32
7052;BME280;3567;52.444;13.556;2024-02-21T12:58:15;101057.22;;;12.19;86.75